createdAt,value
2019-03-10T00:00:57.063Z,19.76
2019-03-10T00:01:57.035Z,19.96
2019-03-10T00:02:57.012Z,20.06
2019-03-10T00:03:56.998Z,19.76
2019-03-10T00:04:56.983Z,19.86
2019-03-10T00:05:56.959Z,20.15
2019-03-10T00:06:56.925Z,20.15
2019-03-10T00:07:56.909Z,20.15
2019-03-10T00:08:56.883Z,20.15
2019-03-10T00:09:56.873Z,20.06
2019-03-10T00:10:56.838Z,20.06
2019-03-10T00:11:56.822Z,20.15
2019-03-10T00:12:56.799Z,20.15
2019-03-10T00:13:56.788Z,20.06
2019-03-10T00:14:56.765Z,20.15
2019-03-10T00:15:56.741Z,20.15
2019-03-10T00:16:56.713Z,20.34
2019-03-10T00:17:56.776Z,20.25
2019-03-10T00:18:56.741Z,20.25
2019-03-10T00:19:56.653Z,20.15
2019-03-10T00:20:56.627Z,20.06
2019-03-10T00:21:56.616Z,19.96
2019-03-10T00:22:56.723Z,20.25
2019-03-10T00:23:56.600Z,20.25
2019-03-10T00:24:56.553Z,20.34
2019-03-10T00:25:56.521Z,20.34
2019-03-10T00:26:56.511Z,20.54
2019-03-10T00:27:56.486Z,20.44
2019-03-10T00:28:56.471Z,20.44
2019-03-10T00:29:56.437Z,20.34
2019-03-10T00:30:56.415Z,20.54
2019-03-10T00:31:56.402Z,20.54
2019-03-10T00:32:56.383Z,20.34
2019-03-10T00:33:56.356Z,20.64
2019-03-10T00:34:56.334Z,20.34
2019-03-10T00:35:56.315Z,20.44
2019-03-10T00:36:56.298Z,20.54
2019-03-10T00:37:56.276Z,20.54
2019-03-10T00:38:56.252Z,20.54
2019-03-10T00:39:56.234Z,20.34
2019-03-10T00:40:56.202Z,20.34
2019-03-10T00:41:56.248Z,20.34
2019-03-10T00:42:56.161Z,20.25
2019-03-10T00:43:56.143Z,20.25
2019-03-10T00:44:56.119Z,20.15
2019-03-10T00:45:56.106Z,20.25
2019-03-10T00:46:56.086Z,20.25
2019-03-10T00:47:56.058Z,20.25
2019-03-10T00:48:56.036Z,20.25
2019-03-10T00:49:56.023Z,20.34
2019-03-10T00:50:56.001Z,20.44
2019-03-10T00:51:55.974Z,20.44
2019-03-10T00:52:55.949Z,20.44
2019-03-10T00:53:55.928Z,20.44
2019-03-10T00:54:55.938Z,20.54
2019-03-10T00:55:55.889Z,20.06
2019-03-10T00:56:55.874Z,20.44
2019-03-10T00:57:55.842Z,20.34
2019-03-10T00:58:55.834Z,20.34
2019-03-10T00:59:55.808Z,20.25
2019-03-10T01:00:55.790Z,20.34
2019-03-10T01:01:55.756Z,20.44
2019-03-10T01:02:55.741Z,20.44
2019-03-10T01:03:55.721Z,20.44
2019-03-10T01:04:55.705Z,20.54
2019-03-10T01:05:55.676Z,20.54
2019-03-10T01:06:55.650Z,20.34
2019-03-10T01:07:55.655Z,20.44
2019-03-10T01:08:55.621Z,20.44
2019-03-10T01:09:55.602Z,20.44
2019-03-10T01:10:55.567Z,20.34
2019-03-10T01:11:55.551Z,20.25
2019-03-10T01:12:55.522Z,20.83
2019-03-10T01:13:55.514Z,20.73
2019-03-10T01:14:55.486Z,20.83
2019-03-10T01:15:55.467Z,20.64
2019-03-10T01:16:55.451Z,20.83
2019-03-10T01:17:55.490Z,20.64
2019-03-10T01:18:55.406Z,20.83
2019-03-10T01:19:55.445Z,20.44
2019-03-10T01:20:55.353Z,20.54
2019-03-10T01:21:55.339Z,20.83
2019-03-10T01:22:55.324Z,20.54
2019-03-10T01:23:55.317Z,20.54
2019-03-10T01:24:55.282Z,20.54
2019-03-10T01:25:55.256Z,20.54
2019-03-10T01:26:55.227Z,20.54
2019-03-10T01:27:55.212Z,20.44
2019-03-10T01:28:55.182Z,20.54
2019-03-10T01:29:55.172Z,20.64
2019-03-10T01:30:55.142Z,20.54
2019-03-10T01:31:55.125Z,21.02
2019-03-10T01:32:55.103Z,20.54
2019-03-10T01:33:55.088Z,20.64
2019-03-10T01:34:55.064Z,20.54
2019-03-10T01:35:55.037Z,20.54
2019-03-10T01:36:55.008Z,20.73
2019-03-10T01:37:54.996Z,20.64
2019-03-10T01:38:54.980Z,20.34
2019-03-10T01:39:54.952Z,20.64
2019-03-10T01:40:54.927Z,20.64
2019-03-10T01:41:54.906Z,20.93
2019-03-10T01:42:54.897Z,20.64
2019-03-10T01:43:54.865Z,20.73
2019-03-10T01:44:54.857Z,20.64
2019-03-10T01:45:54.840Z,20.73
2019-03-10T01:46:54.859Z,20.73
2019-03-10T01:47:54.786Z,20.93
2019-03-10T01:48:54.767Z,20.34
2019-03-10T01:49:54.744Z,20.93
2019-03-10T01:50:54.724Z,20.34
2019-03-10T01:51:54.700Z,20.34
2019-03-10T01:52:54.687Z,20.34
2019-03-10T01:53:54.661Z,20.73
2019-03-10T01:54:54.631Z,20.34
2019-03-10T01:55:54.618Z,20.93
2019-03-10T01:56:54.597Z,20.73
2019-03-10T01:57:54.577Z,20.93
2019-03-10T01:58:54.544Z,20.34
2019-03-10T01:59:54.531Z,21.12
2019-03-10T02:00:54.505Z,20.73
2019-03-10T02:01:54.491Z,21.12
2019-03-10T02:02:54.457Z,20.93
2019-03-10T02:03:54.443Z,20.93
2019-03-10T02:04:54.419Z,20.44
2019-03-10T02:05:54.407Z,21.02
2019-03-10T02:06:54.390Z,20.93
2019-03-10T02:07:54.359Z,21.02
2019-03-10T02:08:54.330Z,20.93
2019-03-10T02:09:54.316Z,20.93
2019-03-10T02:10:54.364Z,20.83
2019-03-10T02:11:54.272Z,20.93
2019-03-10T02:12:54.250Z,20.73
2019-03-10T02:13:54.225Z,20.83
2019-03-10T02:14:54.215Z,20.93
2019-03-10T02:15:54.188Z,20.83
2019-03-10T02:16:54.173Z,20.83
2019-03-10T02:17:54.143Z,20.83
2019-03-10T02:18:54.129Z,20.83
2019-03-10T02:19:54.103Z,20.83
2019-03-10T02:20:54.091Z,20.83
2019-03-10T02:21:54.056Z,20.83
2019-03-10T02:22:54.034Z,21.02
2019-03-10T02:23:54.019Z,21.02
2019-03-10T02:24:54.004Z,20.83
2019-03-10T02:25:53.975Z,20.83
2019-03-10T02:26:53.947Z,20.93
2019-03-10T02:27:53.957Z,20.73
2019-03-10T02:28:53.924Z,20.64
2019-03-10T02:29:53.895Z,20.73
2019-03-10T02:30:53.883Z,20.73
2019-03-10T02:31:53.887Z,20.54
2019-03-10T02:32:53.826Z,20.73
2019-03-10T02:33:53.884Z,20.73
2019-03-10T02:34:53.784Z,20.83
2019-03-10T02:35:53.768Z,20.83
2019-03-10T02:36:53.742Z,21.12
2019-03-10T02:37:53.727Z,20.73
2019-03-10T02:38:53.719Z,21.12
2019-03-10T02:39:53.689Z,21.12
2019-03-10T02:40:53.659Z,20.93
2019-03-10T02:41:53.638Z,20.93
2019-03-10T02:42:53.629Z,20.93
2019-03-10T02:43:53.594Z,20.73
2019-03-10T02:44:53.567Z,20.93
2019-03-10T02:45:53.547Z,20.73
2019-03-10T02:46:53.542Z,21.31
2019-03-10T02:47:53.543Z,20.83
2019-03-10T02:48:53.506Z,21.31
2019-03-10T02:49:53.466Z,21.12
2019-03-10T02:50:53.453Z,21.02
2019-03-10T02:51:53.426Z,21.02
2019-03-10T02:52:53.418Z,21.02
2019-03-10T02:53:53.380Z,21.02
2019-03-10T02:54:53.370Z,21.22
2019-03-10T02:55:53.343Z,21.02
2019-03-10T02:56:53.325Z,20.83
2019-03-10T02:57:53.293Z,21.12
2019-03-10T02:58:53.267Z,20.83
2019-03-10T02:59:53.258Z,20.93
2019-03-10T03:00:53.241Z,20.93
2019-03-10T03:01:53.219Z,20.83
2019-03-10T03:02:53.268Z,21.12
2019-03-10T03:03:53.194Z,20.93
2019-03-10T03:04:53.168Z,20.83
2019-03-10T03:05:53.135Z,21.02
2019-03-10T03:06:53.117Z,21.12
2019-03-10T03:07:53.099Z,20.93
2019-03-10T03:08:53.180Z,21.12
2019-03-10T03:09:53.048Z,21.02
2019-03-10T03:10:53.036Z,21.02
2019-03-10T03:11:52.998Z,21.02
2019-03-10T03:12:52.972Z,21.12
2019-03-10T03:13:52.963Z,20.93
2019-03-10T03:14:52.702Z,20.73
2019-03-10T03:15:52.921Z,20.93
2019-03-10T03:16:55.302Z,20.93
2019-03-10T03:17:52.865Z,20.93
2019-03-10T03:18:52.872Z,21.22
2019-03-10T03:19:52.833Z,20.93
2019-03-10T03:20:52.821Z,21.31
2019-03-10T03:21:52.788Z,21.31
2019-03-10T03:22:52.770Z,21.22
2019-03-10T03:23:52.747Z,21.22
2019-03-10T03:24:52.732Z,21.12
2019-03-10T03:25:52.708Z,21.22
2019-03-10T03:26:52.673Z,21.41
2019-03-10T03:27:52.660Z,21.41
2019-03-10T03:28:52.673Z,20.93
2019-03-10T03:29:52.610Z,21.02
2019-03-10T03:30:52.590Z,21.02
2019-03-10T03:31:52.588Z,21.31
2019-03-10T03:32:52.325Z,21.31
2019-03-10T03:33:52.570Z,21.22
2019-03-10T03:34:52.513Z,21.41
2019-03-10T03:35:52.595Z,21.12
2019-03-10T03:36:52.472Z,21.61
2019-03-10T03:37:52.450Z,21.51
2019-03-10T03:38:52.521Z,21.31
2019-03-10T03:39:52.402Z,21.7
2019-03-10T03:40:52.379Z,21.51
2019-03-10T03:41:52.370Z,21.7
2019-03-10T03:42:52.362Z,21.51
2019-03-10T03:43:52.318Z,21.7
2019-03-10T03:44:52.294Z,21.41
2019-03-10T03:45:52.278Z,21.51
2019-03-10T03:46:52.273Z,21.7
2019-03-10T03:47:52.228Z,21.8
2019-03-10T03:48:52.208Z,21.61
2019-03-10T03:49:52.193Z,21.7
2019-03-10T03:50:52.220Z,21.7
2019-03-10T03:51:52.208Z,21.61
2019-03-10T03:52:52.143Z,21.61
2019-03-10T03:53:52.098Z,21.7
2019-03-10T03:54:52.091Z,21.7
2019-03-10T03:55:52.062Z,21.61
2019-03-10T03:56:52.060Z,21.61
2019-03-10T03:57:51.820Z,21.7
2019-03-10T03:58:51.993Z,21.7
2019-03-10T03:59:51.995Z,21.7
2019-03-10T04:00:51.724Z,21.7
2019-03-10T04:01:51.937Z,21.7
2019-03-10T04:02:51.907Z,21.89
2019-03-10T04:03:51.897Z,21.99
2019-03-10T04:04:51.878Z,21.99
2019-03-10T04:05:51.856Z,21.7
2019-03-10T04:06:51.842Z,21.7
2019-03-10T04:07:51.570Z,21.51
2019-03-10T04:08:51.790Z,21.7
2019-03-10T04:09:51.783Z,21.7
2019-03-10T04:10:51.739Z,21.41
2019-03-10T04:11:51.722Z,21.61
2019-03-10T04:12:51.717Z,21.7
2019-03-10T04:13:51.786Z,21.7
2019-03-10T04:14:51.667Z,21.41
2019-03-10T04:15:51.635Z,21.7
2019-03-10T04:16:51.613Z,21.51
2019-03-10T04:17:51.603Z,21.51
2019-03-10T04:18:51.637Z,22.09
2019-03-10T04:19:51.555Z,22.19
2019-03-10T04:20:51.527Z,21.99
2019-03-10T04:21:51.515Z,22.09
2019-03-10T04:22:51.497Z,21.99
2019-03-10T04:23:51.465Z,21.8
2019-03-10T04:24:51.472Z,22.38
2019-03-10T04:25:51.416Z,22.38
2019-03-10T04:26:51.408Z,22.38
2019-03-10T04:27:51.381Z,22.19
2019-03-10T04:28:51.364Z,22.38
2019-03-10T04:29:51.335Z,22.09
2019-03-10T04:30:51.316Z,22.09
2019-03-10T04:31:51.304Z,22.19
2019-03-10T04:32:51.279Z,21.99
2019-03-10T04:33:51.248Z,22.09
2019-03-10T04:34:51.226Z,21.99
2019-03-10T04:35:51.210Z,22.38
2019-03-10T04:36:51.205Z,22.09
2019-03-10T04:37:50.956Z,22.09
2019-03-10T04:38:51.138Z,22.28
2019-03-10T04:39:51.124Z,22.28
2019-03-10T04:40:51.101Z,22.28
2019-03-10T04:41:51.084Z,22.28
2019-03-10T04:42:51.054Z,22.57
2019-03-10T04:43:51.035Z,22.38
2019-03-10T04:44:51.011Z,22.19
2019-03-10T04:45:51.004Z,22.38
2019-03-10T04:46:50.990Z,22.09
2019-03-10T04:47:50.993Z,22.57
2019-03-10T04:48:50.935Z,22.38
2019-03-10T04:49:50.904Z,22.38
2019-03-10T04:50:50.883Z,22.48
2019-03-10T04:51:50.868Z,22.38
2019-03-10T04:52:50.606Z,22.48
2019-03-10T04:53:50.839Z,22.48
2019-03-10T04:54:50.799Z,22.48
2019-03-10T04:55:50.787Z,22.19
2019-03-10T04:56:50.758Z,22.48
2019-03-10T04:57:50.744Z,22.38
2019-03-10T04:58:50.720Z,22.19
2019-03-10T04:59:50.695Z,22.19
2019-03-10T05:00:50.762Z,22.19
2019-03-10T05:01:50.755Z,22.38
2019-03-10T05:02:50.786Z,22.38
2019-03-10T05:03:50.675Z,22.37
2019-03-10T05:04:50.679Z,22.19
2019-03-10T05:05:50.766Z,22.37
2019-03-10T05:06:50.579Z,21.99
2019-03-10T05:07:50.573Z,22.38
2019-03-10T05:08:50.605Z,22.48
2019-03-10T05:09:50.534Z,22.19
2019-03-10T05:10:50.578Z,22.19
2019-03-10T05:11:50.457Z,22.08
2019-03-10T05:12:50.460Z,22.09
2019-03-10T05:13:50.430Z,22.09
2019-03-10T05:14:50.418Z,22.48
2019-03-10T05:15:50.389Z,22.27
2019-03-10T05:16:50.338Z,22.38
2019-03-10T05:17:50.309Z,22.38
2019-03-10T05:18:50.286Z,22.48
2019-03-10T05:19:50.270Z,22.48
2019-03-10T05:20:50.256Z,22.08
2019-03-10T05:21:50.229Z,22.09
2019-03-10T05:22:50.205Z,22.09
2019-03-10T05:23:50.186Z,22.09
2019-03-10T05:24:50.167Z,22.09
2019-03-10T05:25:50.146Z,22.19
2019-03-10T05:26:50.136Z,22.48
2019-03-10T05:27:50.098Z,22.57
2019-03-10T05:28:50.107Z,22.77
2019-03-10T05:29:50.059Z,22.48
2019-03-10T05:30:50.088Z,22.57
2019-03-10T05:31:50.012Z,22.57
2019-03-10T05:32:49.989Z,22.48
2019-03-10T05:33:49.988Z,22.48
2019-03-10T05:34:50.055Z,22.57
2019-03-10T05:35:49.925Z,22.77
2019-03-10T05:36:49.902Z,22.48
2019-03-10T05:37:49.887Z,22.77
2019-03-10T05:38:49.871Z,22.67
2019-03-10T05:39:49.842Z,22.77
2019-03-10T05:40:49.815Z,22.57
2019-03-10T05:41:49.824Z,22.67
2019-03-10T05:42:49.808Z,22.57
2019-03-10T05:43:49.762Z,22.67
2019-03-10T05:44:49.738Z,22.48
2019-03-10T05:45:49.713Z,22.57
2019-03-10T05:46:49.696Z,22.67
2019-03-10T05:47:49.670Z,22.77
2019-03-10T05:48:49.657Z,22.77
2019-03-10T05:49:49.628Z,22.48
2019-03-10T05:50:49.601Z,22.67
2019-03-10T05:51:49.587Z,22.57
2019-03-10T05:52:49.567Z,22.77
2019-03-10T05:53:49.586Z,23.16
2019-03-10T05:54:49.515Z,22.86
2019-03-10T05:55:49.498Z,22.96
2019-03-10T05:56:49.483Z,23.06
2019-03-10T05:57:49.470Z,23.16
2019-03-10T05:58:49.433Z,23.25
2019-03-10T05:59:49.416Z,23.25
2019-03-10T06:00:49.385Z,23.25
2019-03-10T06:01:49.376Z,23.14
2019-03-10T06:02:49.370Z,23.06
2019-03-10T06:03:49.085Z,23.16
2019-03-10T06:04:49.301Z,23.43
2019-03-10T06:05:49.294Z,23.43
2019-03-10T06:06:49.275Z,23.44
2019-03-10T06:07:49.242Z,23.25
2019-03-10T06:08:49.219Z,23.16
2019-03-10T06:09:49.200Z,23.25
2019-03-10T06:10:49.182Z,23.44
2019-03-10T06:11:49.155Z,23.16
2019-03-10T06:12:49.127Z,23.06
2019-03-10T06:13:49.110Z,23.06
2019-03-10T06:14:49.096Z,23.25
2019-03-10T06:15:49.066Z,23.44
2019-03-10T06:16:49.051Z,23.35
2019-03-10T06:17:49.022Z,23.35
2019-03-10T06:18:49.009Z,23.44
2019-03-10T06:19:48.986Z,23.44
2019-03-10T06:20:48.969Z,23.54
2019-03-10T06:21:48.947Z,23.54
2019-03-10T06:22:48.917Z,23.43
2019-03-10T06:23:48.900Z,22.96
2019-03-10T06:24:48.893Z,23.25
2019-03-10T06:25:48.855Z,22.86
2019-03-10T06:26:48.830Z,22.96
2019-03-10T06:27:48.822Z,23.16
2019-03-10T06:28:50.814Z,23.35
2019-03-10T06:29:48.779Z,23.16
2019-03-10T06:30:48.744Z,23.24
2019-03-10T06:31:48.726Z,23.16
2019-03-10T06:32:48.704Z,23.25
2019-03-10T06:33:48.706Z,23.25
2019-03-10T06:34:48.660Z,23.16
2019-03-10T06:35:48.659Z,23.16
2019-03-10T06:36:48.640Z,23.25
2019-03-10T06:37:48.605Z,23.25
2019-03-10T06:38:48.585Z,23.35
2019-03-10T06:39:48.556Z,23.25
2019-03-10T06:40:48.528Z,23.24
2019-03-10T06:41:48.516Z,23.35
2019-03-10T06:42:48.501Z,23.25
2019-03-10T06:43:48.472Z,23.54
2019-03-10T06:44:48.443Z,23.54
2019-03-10T06:45:48.423Z,23.64
2019-03-10T06:46:48.412Z,23.74
2019-03-10T06:47:48.382Z,23.54
2019-03-10T06:48:48.369Z,23.83
2019-03-10T06:49:48.339Z,23.83
2019-03-10T06:50:48.329Z,23.64
2019-03-10T06:51:48.306Z,23.83
2019-03-10T06:52:48.289Z,23.74
2019-03-10T06:53:48.251Z,23.83
2019-03-10T06:54:48.237Z,23.74
2019-03-10T06:55:48.214Z,23.64
2019-03-10T06:56:48.197Z,23.74
2019-03-10T06:57:48.170Z,23.64
2019-03-10T06:58:48.146Z,23.74
2019-03-10T06:59:49.915Z,23.64
2019-03-10T07:00:48.114Z,23.72
2019-03-10T07:01:48.090Z,23.74
2019-03-10T07:02:48.057Z,23.72
2019-03-10T07:03:48.049Z,23.64
2019-03-10T07:04:48.018Z,23.53
2019-03-10T07:05:48.010Z,23.54
2019-03-10T07:06:47.976Z,23.63
2019-03-10T07:07:47.956Z,23.54
2019-03-10T07:08:47.930Z,23.53
2019-03-10T07:09:47.921Z,23.44
2019-03-10T07:10:47.915Z,23.53
2019-03-10T07:11:47.870Z,23.82
2019-03-10T07:12:47.850Z,23.44
2019-03-10T07:13:47.830Z,23.74
2019-03-10T07:14:47.812Z,23.43
2019-03-10T07:15:47.785Z,23.43
2019-03-10T07:16:47.770Z,23.53
2019-03-10T07:17:47.791Z,23.82
2019-03-10T07:18:47.727Z,23.43
2019-03-10T07:19:47.697Z,23.54
2019-03-10T07:20:47.684Z,23.53
2019-03-10T07:21:47.419Z,23.43
2019-03-10T07:22:47.642Z,23.53
2019-03-10T07:23:47.616Z,23.64
2019-03-10T07:24:47.597Z,23.53
2019-03-10T07:25:47.574Z,23.33
2019-03-10T07:26:47.545Z,23.33
2019-03-10T07:27:47.530Z,23.53
2019-03-10T07:28:47.513Z,23.43
2019-03-10T07:29:47.483Z,23.43
2019-03-10T07:30:47.459Z,23.43
2019-03-10T07:31:47.445Z,23.53
2019-03-10T07:32:47.428Z,23.43
2019-03-10T07:33:47.408Z,23.53
2019-03-10T07:34:47.372Z,23.53
2019-03-10T07:35:47.358Z,23.93
2019-03-10T07:36:47.329Z,23.33
2019-03-10T07:37:47.320Z,23.63
2019-03-10T07:38:47.284Z,23.44
2019-03-10T07:39:47.299Z,23.43
2019-03-10T07:40:47.244Z,23.72
2019-03-10T07:41:47.234Z,23.82
2019-03-10T07:42:47.212Z,23.83
2019-03-10T07:43:47.187Z,23.82
2019-03-10T07:44:47.162Z,23.92
2019-03-10T07:45:47.161Z,23.82
2019-03-10T07:46:47.129Z,23.92
2019-03-10T07:47:47.098Z,24.02
2019-03-10T07:48:47.072Z,24.11
2019-03-10T07:49:47.049Z,24.21
2019-03-10T07:50:47.040Z,24.11
2019-03-10T07:51:47.017Z,24.11
2019-03-10T07:52:46.999Z,24.11
2019-03-10T07:53:46.964Z,24.21
2019-03-10T07:54:46.959Z,24.11
2019-03-10T07:55:46.930Z,24.11
2019-03-10T07:56:46.914Z,24.02
2019-03-10T07:57:46.641Z,23.92
2019-03-10T07:58:46.857Z,24.11
2019-03-10T07:59:46.842Z,24.11
2019-03-10T08:00:46.824Z,23.82
2019-03-10T08:01:46.804Z,24.11
2019-03-10T08:02:46.770Z,24.3
2019-03-10T08:03:46.773Z,24.11
2019-03-10T08:04:46.760Z,24.11
2019-03-10T08:05:46.720Z,24.3
2019-03-10T08:06:46.687Z,24.3
2019-03-10T08:07:46.669Z,24.11
2019-03-10T08:08:46.641Z,24.11
2019-03-10T08:09:46.634Z,24.12
2019-03-10T08:10:46.601Z,24.11
2019-03-10T08:11:46.605Z,24.11
2019-03-10T08:12:46.563Z,23.93
2019-03-10T08:13:46.536Z,23.93
2019-03-10T08:14:46.514Z,24.11
2019-03-10T08:15:46.500Z,24.12
2019-03-10T08:16:46.482Z,24.41
2019-03-10T08:17:46.454Z,24.22
2019-03-10T08:18:46.436Z,24.3
2019-03-10T08:19:46.420Z,24.3
2019-03-10T08:20:46.396Z,24.4
2019-03-10T08:21:46.375Z,24.32
2019-03-10T08:22:46.348Z,24.3
2019-03-10T08:23:46.328Z,24.32
2019-03-10T08:24:46.299Z,24.32
2019-03-10T08:25:46.296Z,24.22
2019-03-10T08:26:46.256Z,24.32
2019-03-10T08:27:46.240Z,24.22
2019-03-10T08:28:46.238Z,24.32
2019-03-10T08:29:46.212Z,24.22
2019-03-10T08:30:46.188Z,24.32
2019-03-10T08:31:46.155Z,24.51
2019-03-10T08:32:46.130Z,24.3
2019-03-10T08:33:46.115Z,24.41
2019-03-10T08:34:46.095Z,24.51
2019-03-10T08:35:46.068Z,24.3
2019-03-10T08:36:46.045Z,24.22
2019-03-10T08:37:46.022Z,24.22
2019-03-10T08:38:46.011Z,24.21
2019-03-10T08:39:45.982Z,24.32
2019-03-10T08:40:45.981Z,24.32
2019-03-10T08:41:45.936Z,24.32
2019-03-10T08:42:45.923Z,24.3
2019-03-10T08:43:45.900Z,24.32
2019-03-10T08:44:45.886Z,24.22
2019-03-10T08:45:45.850Z,24.4
2019-03-10T08:46:45.827Z,24.22
2019-03-10T08:47:45.815Z,24.22
2019-03-10T08:48:45.796Z,24.41
2019-03-10T08:49:47.925Z,24.41
2019-03-10T08:50:45.740Z,24.51
2019-03-10T08:51:45.728Z,24.41
2019-03-10T08:52:45.711Z,24.41
2019-03-10T08:53:45.694Z,24.41
2019-03-10T08:54:45.661Z,24.61
2019-03-10T08:55:45.644Z,24.61
2019-03-10T08:56:45.614Z,24.51
2019-03-10T08:57:45.606Z,24.32
2019-03-10T08:58:45.572Z,24.51
2019-03-10T08:59:45.315Z,24.61
2019-03-10T09:00:45.528Z,24.9
2019-03-10T09:01:45.517Z,24.8
2019-03-10T09:02:45.497Z,24.9
2019-03-10T09:03:45.479Z,24.99
2019-03-10T09:04:45.470Z,24.9
2019-03-10T09:05:45.435Z,24.9
2019-03-10T09:06:47.213Z,24.71
2019-03-10T09:07:45.383Z,24.61
2019-03-10T09:08:45.358Z,24.8
2019-03-10T09:09:45.993Z,24.8
2019-03-10T09:10:45.335Z,25.19
2019-03-10T09:11:45.297Z,24.9
2019-03-10T09:12:45.282Z,24.99
2019-03-10T09:13:45.257Z,24.9
2019-03-10T09:14:45.244Z,24.99
2019-03-10T09:15:45.221Z,24.99
2019-03-10T09:16:45.236Z,24.9
2019-03-10T09:17:45.208Z,25.19
2019-03-10T09:18:45.145Z,25.19
2019-03-10T09:19:45.136Z,25.48
2019-03-10T09:20:45.125Z,25.48
2019-03-10T09:21:45.087Z,25.29
2019-03-10T09:22:45.058Z,25.38
2019-03-10T09:23:45.044Z,25.67
2019-03-10T09:24:45.034Z,25.29
2019-03-10T09:25:45.007Z,25.38
2019-03-10T09:26:44.973Z,25.48
2019-03-10T09:27:44.961Z,25.48
2019-03-10T09:28:44.931Z,25.38
2019-03-10T09:29:44.919Z,25.48
2019-03-10T09:30:44.886Z,25.58
2019-03-10T09:31:44.875Z,25.19
2019-03-10T09:32:44.847Z,25.67
2019-03-10T09:33:44.835Z,25.77
2019-03-10T09:34:44.816Z,25.58
2019-03-10T09:35:44.790Z,25.67
2019-03-10T09:36:44.766Z,25.58
2019-03-10T09:37:44.748Z,25.48
2019-03-10T09:38:44.733Z,25.67
2019-03-10T09:39:44.702Z,25.58
2019-03-10T09:40:44.689Z,25.87
2019-03-10T09:41:44.672Z,25.77
2019-03-10T09:42:44.645Z,25.87
2019-03-10T09:43:44.615Z,25.96
2019-03-10T09:44:44.599Z,25.67
2019-03-10T09:45:44.581Z,25.77
2019-03-10T09:46:44.560Z,25.58
2019-03-10T09:47:44.551Z,25.67
2019-03-10T09:48:44.514Z,26.26
2019-03-10T09:49:44.480Z,25.77
2019-03-10T09:50:44.465Z,26.06
2019-03-10T09:51:44.445Z,25.87
2019-03-10T09:52:44.428Z,25.67
2019-03-10T09:53:44.398Z,26.06
2019-03-10T09:54:44.375Z,25.87
2019-03-10T09:55:44.358Z,26.06
2019-03-10T09:56:44.331Z,25.96
2019-03-10T09:57:44.312Z,26.06
2019-03-10T09:58:44.301Z,26.26
2019-03-10T09:59:44.301Z,26.16
2019-03-10T10:00:44.260Z,26.16
2019-03-10T10:01:44.226Z,26.26
2019-03-10T10:02:44.216Z,25.96
2019-03-10T10:03:44.191Z,26.06
2019-03-10T10:04:44.176Z,26.06
2019-03-10T10:05:44.141Z,25.96
2019-03-10T10:06:44.121Z,26.16
2019-03-10T10:07:44.105Z,26.16
2019-03-10T10:08:45.285Z,26.26
2019-03-10T10:09:44.061Z,26.06
2019-03-10T10:10:44.036Z,25.96
2019-03-10T10:11:44.020Z,26.06
2019-03-10T10:12:44.007Z,25.96
2019-03-10T10:13:43.981Z,25.96
2019-03-10T10:14:43.952Z,26.06
2019-03-10T10:15:43.955Z,26.06
2019-03-10T10:16:43.908Z,26.35
2019-03-10T10:17:43.655Z,26.17
2019-03-10T10:18:43.908Z,26.06
2019-03-10T10:19:43.847Z,26.26
2019-03-10T10:20:43.825Z,26.27
2019-03-10T10:21:43.813Z,26.27
2019-03-10T10:22:43.790Z,26.65
2019-03-10T10:23:43.765Z,26.56
2019-03-10T10:24:43.737Z,26.56
2019-03-10T10:25:43.727Z,26.56
2019-03-10T10:26:43.706Z,26.56
2019-03-10T10:27:44.174Z,26.65
2019-03-10T10:28:43.656Z,26.46
2019-03-10T10:29:43.635Z,26.65
2019-03-10T10:30:43.645Z,26.85
2019-03-10T10:31:43.597Z,26.75
2019-03-10T10:32:43.584Z,26.65
2019-03-10T10:33:43.550Z,26.95
2019-03-10T10:34:43.585Z,26.65
2019-03-10T10:35:43.597Z,26.95
2019-03-10T10:36:43.611Z,26.85
2019-03-10T10:37:43.461Z,26.85
2019-03-10T10:38:43.538Z,26.75
2019-03-10T10:39:43.426Z,26.65
2019-03-10T10:40:43.412Z,27.14
2019-03-10T10:41:43.385Z,27.33
2019-03-10T10:42:43.352Z,27.33
2019-03-10T10:43:43.346Z,27.33
2019-03-10T10:44:43.328Z,27.24
2019-03-10T10:45:43.304Z,27.04
2019-03-10T10:46:43.273Z,27.43
2019-03-10T10:47:43.256Z,27.35
2019-03-10T10:48:43.231Z,27.43
2019-03-10T10:49:43.222Z,27.64
2019-03-10T10:50:43.213Z,27.45
2019-03-10T10:51:43.189Z,27.25
2019-03-10T10:52:43.152Z,27.54
2019-03-10T10:53:43.149Z,27.64
2019-03-10T10:54:43.124Z,27.73
2019-03-10T10:55:43.105Z,27.35
2019-03-10T10:56:43.103Z,27.64
2019-03-10T10:57:43.063Z,27.93
2019-03-10T10:58:43.029Z,27.73
2019-03-10T10:59:42.999Z,27.93
2019-03-10T11:00:42.982Z,28.22
2019-03-10T11:01:42.955Z,28.41
2019-03-10T11:02:42.949Z,28.32
2019-03-10T11:03:43.037Z,28.13
2019-03-10T11:04:42.908Z,28.41
2019-03-10T11:05:42.870Z,28.32
2019-03-10T11:06:42.889Z,28.22
2019-03-10T11:07:42.834Z,28.03
2019-03-10T11:08:42.855Z,27.93
2019-03-10T11:09:42.786Z,27.93
2019-03-10T11:10:42.772Z,28.22
2019-03-10T11:11:44.443Z,27.93
2019-03-10T11:12:42.737Z,27.93
2019-03-10T11:13:42.710Z,28.22
2019-03-10T11:14:42.681Z,28.13
2019-03-10T11:15:42.666Z,27.72
2019-03-10T11:16:42.657Z,28.03
2019-03-10T11:17:42.629Z,27.92
2019-03-10T11:18:42.597Z,28.03
2019-03-10T11:19:42.591Z,28.11
2019-03-10T11:20:42.553Z,28.02
2019-03-10T11:21:42.545Z,27.93
2019-03-10T11:22:42.524Z,27.92
2019-03-10T11:23:42.537Z,28.22
2019-03-10T11:24:42.472Z,27.64
2019-03-10T11:25:42.463Z,27.25
2019-03-10T11:26:42.441Z,27.73
2019-03-10T11:27:42.416Z,27.64
2019-03-10T11:28:42.387Z,27.73
2019-03-10T11:29:42.413Z,27.93
2019-03-10T11:30:42.431Z,27.93
2019-03-10T11:31:42.598Z,27.45
2019-03-10T11:32:42.411Z,27.73
2019-03-10T11:33:42.285Z,27.93
2019-03-10T11:34:42.683Z,28.13
2019-03-10T11:35:42.246Z,28.13
2019-03-10T11:36:42.232Z,27.93
2019-03-10T11:37:42.237Z,27.93
2019-03-10T11:38:42.181Z,28.13
2019-03-10T11:39:42.164Z,27.93
2019-03-10T11:40:42.137Z,28.41
2019-03-10T11:41:44.606Z,28.22
2019-03-10T11:42:42.105Z,28.22
2019-03-10T11:43:42.078Z,28.41
2019-03-10T11:44:42.056Z,28.13
2019-03-10T11:45:42.045Z,28.13
2019-03-10T11:46:42.025Z,28.13
2019-03-10T11:47:41.996Z,28.13
2019-03-10T11:48:41.971Z,28.41
2019-03-10T11:49:41.946Z,28.03
2019-03-10T11:50:41.939Z,27.93
2019-03-10T11:51:41.911Z,28.22
2019-03-10T11:52:42.104Z,28.03
2019-03-10T11:53:41.866Z,28.03
2019-03-10T11:54:41.856Z,27.73
2019-03-10T11:55:41.831Z,27.93
2019-03-10T11:56:44.743Z,27.83
2019-03-10T11:57:41.782Z,28.03
2019-03-10T11:58:41.762Z,28.13
2019-03-10T11:59:41.752Z,28.22
2019-03-10T12:00:41.743Z,27.64
2019-03-10T12:01:41.471Z,27.64
2019-03-10T12:02:41.676Z,27.64
2019-03-10T12:03:41.666Z,27.73
2019-03-10T12:04:41.646Z,28.03
2019-03-10T12:05:41.622Z,27.73
2019-03-10T12:06:41.597Z,27.35
2019-03-10T12:07:41.578Z,27.35
2019-03-10T12:08:41.554Z,27.45
2019-03-10T12:09:41.540Z,27.35
2019-03-10T12:10:41.506Z,27.35
2019-03-10T12:11:41.496Z,27.35
2019-03-10T12:12:41.469Z,27.35
2019-03-10T12:13:41.462Z,27.35
2019-03-10T12:14:41.434Z,27.35
2019-03-10T12:15:41.410Z,27.33
2019-03-10T12:16:41.393Z,27.82
2019-03-10T12:17:41.370Z,27.35
2019-03-10T12:18:41.353Z,27.72
2019-03-10T12:19:41.325Z,27.33
2019-03-10T12:20:41.298Z,27.45
2019-03-10T12:21:41.278Z,27.54
2019-03-10T12:22:41.269Z,27.82
2019-03-10T12:23:41.242Z,27.64
2019-03-10T12:24:41.229Z,27.73
2019-03-10T12:25:41.196Z,27.73
2019-03-10T12:26:41.183Z,27.64
2019-03-10T12:27:41.161Z,27.54
2019-03-10T12:28:41.692Z,26.96
2019-03-10T12:29:41.112Z,27.06
2019-03-10T12:30:41.086Z,27.35
2019-03-10T12:31:41.076Z,27.06
2019-03-10T12:32:41.064Z,27.06
2019-03-10T12:33:41.028Z,27.54
2019-03-10T12:34:41.007Z,27.45
2019-03-10T12:35:40.992Z,27.35
2019-03-10T12:36:41.196Z,27.35
2019-03-10T12:37:40.952Z,27.35
2019-03-10T12:38:40.920Z,27.53
2019-03-10T12:39:40.907Z,27.45
2019-03-10T12:40:40.879Z,27.53
2019-03-10T12:41:40.869Z,27.04
2019-03-10T12:42:40.849Z,27.62
2019-03-10T12:43:40.819Z,27.72
2019-03-10T12:44:40.803Z,27.33
2019-03-10T12:45:40.786Z,27.33
2019-03-10T12:46:40.763Z,27.24
2019-03-10T12:47:40.739Z,27.24
2019-03-10T12:48:40.716Z,27.14
2019-03-10T12:49:40.699Z,27.33
2019-03-10T12:50:40.680Z,27.24
2019-03-10T12:51:40.651Z,27.14
2019-03-10T12:52:40.629Z,27.04
2019-03-10T12:53:40.632Z,27.14
2019-03-10T12:54:40.602Z,27.14